createdAt,value
2022-12-01T00:00:35.184Z,79.35
2022-12-01T00:03:22.217Z,79.29
2022-12-01T00:06:15.645Z,79.38
2022-12-01T00:09:20.727Z,79.62
2022-12-01T00:12:07.432Z,79.91
2022-12-01T00:15:00.900Z,80.06
2022-12-01T00:17:48.532Z,79.95
2022-12-01T00:20:34.797Z,79.79
2022-12-01T00:23:22.052Z,79.86
2022-12-01T00:26:08.452Z,79.75
2022-12-01T00:28:56.999Z,79.79
2022-12-01T00:31:43.404Z,79.40
2022-12-01T00:34:29.993Z,79.27
2022-12-01T00:37:16.412Z,79.40
2022-12-01T00:40:04.143Z,79.45
2022-12-01T00:42:51.247Z,79.94
2022-12-01T00:45:37.950Z,80.09
2022-12-01T00:48:24.574Z,79.62
2022-12-01T00:51:11.297Z,79.79
2022-12-01T00:53:58.194Z,79.38
2022-12-01T00:56:44.904Z,79.35
2022-12-01T00:59:31.513Z,79.41
2022-12-01T01:02:18.162Z,79.58
2022-12-01T01:05:05.424Z,79.25
2022-12-01T01:07:52.292Z,79.50
2022-12-01T01:10:43.260Z,79.79
2022-12-01T01:13:29.765Z,80.05
2022-12-01T01:16:20.708Z,79.90
2022-12-01T01:19:07.380Z,79.82
2022-12-01T01:21:53.694Z,79.58
2022-12-01T01:24:40.287Z,79.43
2022-12-01T01:27:26.887Z,79.44
2022-12-01T01:30:13.783Z,79.29
2022-12-01T01:33:00.611Z,79.48
2022-12-01T01:35:47.320Z,79.41
2022-12-01T01:38:33.794Z,79.61
2022-12-01T01:41:20.939Z,79.60
2022-12-01T01:44:45.762Z,79.44
2022-12-01T01:47:36.222Z,79.57
2022-12-01T01:50:24.593Z,79.57
2022-12-01T01:53:13.032Z,79.60
2022-12-01T01:55:59.536Z,79.49
2022-12-01T01:58:45.779Z,79.69
2022-12-01T02:01:32.800Z,79.66
2022-12-01T02:04:19.869Z,79.73
2022-12-01T02:07:07.679Z,79.76
2022-12-01T02:09:54.196Z,79.88
2022-12-01T02:12:49.790Z,79.76
2022-12-01T02:15:37.246Z,79.70
2022-12-01T02:18:36.139Z,79.62
2022-12-01T02:21:41.276Z,79.76
2022-12-01T02:24:49.589Z,79.64
2022-12-01T02:27:53.909Z,79.50
2022-12-01T02:31:03.892Z,79.58
2022-12-01T02:33:56.077Z,79.67
2022-12-01T02:36:47.526Z,79.84
2022-12-01T02:39:46.013Z,79.63
2022-12-01T02:43:11.921Z,79.55
2022-12-01T02:46:21.410Z,79.39
2022-12-01T02:49:14.181Z,79.44
2022-12-01T02:52:00.919Z,79.61
2022-12-01T02:54:48.457Z,79.43
2022-12-01T02:57:35.377Z,79.37
2022-12-01T03:00:21.629Z,79.28
2022-12-01T03:03:35.230Z,79.01
2022-12-01T03:06:36.756Z,79.05
2022-12-01T03:09:47.065Z,79.20
2022-12-01T03:12:58.926Z,79.17
2022-12-01T03:16:00.988Z,79.38
2022-12-01T03:18:53.880Z,79.20
2022-12-01T03:21:43.013Z,79.15
2022-12-01T03:24:31.804Z,79.35
2022-12-01T03:27:19.614Z,79.07
2022-12-01T03:30:10.340Z,79.08
2022-12-01T03:33:01.258Z,79.23
2022-12-01T03:36:00.124Z,79.22
2022-12-01T03:38:49.168Z,79.23
2022-12-01T03:41:41.679Z,79.55
2022-12-01T03:44:34.176Z,79.65
2022-12-01T03:47:25.290Z,79.94
2022-12-01T03:50:14.205Z,79.39
2022-12-01T03:53:13.248Z,79.26
2022-12-01T03:56:02.802Z,79.62
2022-12-01T03:58:49.304Z,79.85
2022-12-01T04:01:36.085Z,80.01
2022-12-01T04:04:23.027Z,79.92
2022-12-01T04:07:13.562Z,79.82
2022-12-01T04:09:59.921Z,79.66
2022-12-01T04:12:46.686Z,79.26
2022-12-01T04:15:33.444Z,79.37
2022-12-01T04:18:20.599Z,79.34
2022-12-01T04:21:07.207Z,78.92
2022-12-01T04:24:02.511Z,78.75
2022-12-01T04:26:49.181Z,78.84
2022-12-01T04:29:35.995Z,78.82
2022-12-01T04:32:22.600Z,79.10
2022-12-01T04:35:10.964Z,79.23
2022-12-01T04:37:57.249Z,79.43
2022-12-01T04:40:43.882Z,79.52
2022-12-01T04:43:30.870Z,79.43
2022-12-01T04:46:18.932Z,79.37
2022-12-01T04:49:05.313Z,79.40
2022-12-01T04:51:52.438Z,79.38
2022-12-01T04:54:38.913Z,79.51
2022-12-01T04:57:25.637Z,79.84
2022-12-01T05:00:13.446Z,79.91
2022-12-01T05:03:00.489Z,79.99
2022-12-01T05:05:46.915Z,79.66
2022-12-01T05:08:34.377Z,79.72
2022-12-01T05:11:20.691Z,79.58
2022-12-01T05:14:07.628Z,79.32
2022-12-01T05:16:55.324Z,79.32
2022-12-01T05:20:00.738Z,79.23
2022-12-01T05:23:04.867Z,79.41
2022-12-01T05:25:52.758Z,79.43
2022-12-01T05:28:40.918Z,79.48
2022-12-01T05:31:27.894Z,79.44
2022-12-01T05:34:14.924Z,79.52
2022-12-01T05:37:01.433Z,79.54
2022-12-01T05:39:48.577Z,79.62
2022-12-01T05:42:35.259Z,79.63
2022-12-01T05:45:22.173Z,79.75
2022-12-01T05:48:09.088Z,80.03
2022-12-01T05:50:55.509Z,80.16
2022-12-01T05:53:42.099Z,80.09
2022-12-01T05:56:28.702Z,79.88
2022-12-01T05:59:15.505Z,79.87
2022-12-01T06:02:02.431Z,79.58
2022-12-01T06:04:49.843Z,79.49
2022-12-01T06:07:36.310Z,79.59
2022-12-01T06:10:22.749Z,79.62
2022-12-01T06:13:09.357Z,79.69
2022-12-01T06:15:59.497Z,79.61
2022-12-01T06:18:46.456Z,79.91
2022-12-01T06:21:33.233Z,79.91
2022-12-01T06:24:20.081Z,79.78
2022-12-01T06:27:06.513Z,79.86
2022-12-01T06:29:53.384Z,80.06
2022-12-01T06:32:39.932Z,79.98
2022-12-01T06:35:26.224Z,80.00
2022-12-01T06:38:13.209Z,80.12
2022-12-01T06:41:00.409Z,80.08
2022-12-01T06:43:46.981Z,80.02
2022-12-01T06:46:33.385Z,80.10
2022-12-01T06:49:20.505Z,80.26
2022-12-01T06:52:07.035Z,80.46
2022-12-01T06:54:53.860Z,80.41
2022-12-01T06:57:41.088Z,80.18
2022-12-01T07:00:27.578Z,80.10
2022-12-01T07:03:14.516Z,79.87
2022-12-01T07:06:01.644Z,79.95
2022-12-01T07:08:48.263Z,79.87
2022-12-01T07:11:36.586Z,79.86
2022-12-01T07:14:24.468Z,79.60
2022-12-01T07:17:11.175Z,79.68
2022-12-01T07:19:58.211Z,79.67
2022-12-01T07:22:45.043Z,79.86
2022-12-01T07:25:32.044Z,79.99
2022-12-01T07:28:18.360Z,79.93
2022-12-01T07:31:09.367Z,79.79
2022-12-01T07:33:55.983Z,79.87
2022-12-01T07:36:42.581Z,80.04
2022-12-01T07:39:29.341Z,80.01
2022-12-01T07:42:16.201Z,79.90
2022-12-01T07:45:03.026Z,80.03
2022-12-01T07:47:53.306Z,80.07
2022-12-01T07:50:40.118Z,80.11
2022-12-01T07:53:26.929Z,80.08
2022-12-01T07:56:13.842Z,80.01
2022-12-01T07:59:00.247Z,79.78
2022-12-01T08:01:46.686Z,79.55
2022-12-01T08:04:33.246Z,79.18
2022-12-01T08:07:19.927Z,78.99
2022-12-01T08:10:06.737Z,78.88
2022-12-01T08:12:53.476Z,78.84
2022-12-01T08:15:39.840Z,78.48
2022-12-01T08:18:26.565Z,78.91
2022-12-01T08:21:15.030Z,78.72
2022-12-01T08:24:01.522Z,78.54
2022-12-01T08:26:48.054Z,78.69
2022-12-01T08:29:35.672Z,78.70
2022-12-01T08:32:22.098Z,78.48
2022-12-01T08:35:09.291Z,78.13
2022-12-01T08:37:55.894Z,78.31
2022-12-01T08:40:42.200Z,78.40
2022-12-01T08:43:56.104Z,78.91
2022-12-01T08:46:36.226Z,78.79
2022-12-01T08:49:23.112Z,78.56
2022-12-01T08:52:09.464Z,77.85
2022-12-01T08:54:56.029Z,77.97
2022-12-01T08:57:42.822Z,77.62
2022-12-01T09:00:29.540Z,77.37
2022-12-01T09:03:16.075Z,77.60
2022-12-01T09:06:10.771Z,78.14
2022-12-01T09:09:00.305Z,77.57
2022-12-01T09:11:47.424Z,77.95
2022-12-01T09:14:40.190Z,78.09
2022-12-01T09:17:26.967Z,78.10
2022-12-01T09:20:13.777Z,78.13
2022-12-01T09:23:00.587Z,78.02
2022-12-01T09:25:48.131Z,77.87
2022-12-01T09:28:35.352Z,78.12
2022-12-01T09:31:23.745Z,78.50
2022-12-01T09:34:13.884Z,78.64
2022-12-01T09:37:00.716Z,78.61
2022-12-01T09:39:47.772Z,78.05
2022-12-01T09:42:35.683Z,78.05
2022-12-01T09:45:27.063Z,77.64
2022-12-01T09:48:28.007Z,77.54
2022-12-01T09:51:21.071Z,77.53
2022-12-01T09:54:08.603Z,77.88
2022-12-01T09:56:55.493Z,77.58
2022-12-01T09:59:43.587Z,77.56
2022-12-01T10:02:39.554Z,78.05
2022-12-01T10:05:29.747Z,78.22
2022-12-01T10:08:22.491Z,77.90
2022-12-01T10:11:27.038Z,78.07
2022-12-01T10:14:20.046Z,77.70
2022-12-01T10:17:32.407Z,77.90
2022-12-01T10:20:24.403Z,77.56
2022-12-01T10:23:32.943Z,77.65
2022-12-01T10:26:38.401Z,77.58
2022-12-01T10:29:28.858Z,77.43
2022-12-01T10:32:20.010Z,76.81
2022-12-01T10:35:11.080Z,77.13
2022-12-01T10:38:00.368Z,77.43
2022-12-01T10:40:47.075Z,77.21
2022-12-01T10:43:44.634Z,77.24
2022-12-01T10:46:45.094Z,77.42
2022-12-01T10:49:36.823Z,77.23
2022-12-01T10:52:39.750Z,77.38
2022-12-01T10:55:32.047Z,77.61
2022-12-01T10:58:19.277Z,77.79
2022-12-01T11:01:05.956Z,77.78
2022-12-01T11:03:59.586Z,77.48
2022-12-01T11:06:48.774Z,77.12
2022-12-01T11:09:35.374Z,77.26
2022-12-01T11:12:22.539Z,76.80
2022-12-01T11:15:18.441Z,76.38
2022-12-01T11:18:25.343Z,76.62
2022-12-01T11:21:14.204Z,76.33
2022-12-01T11:24:01.218Z,76.25
2022-12-01T11:26:48.008Z,76.13
2022-12-01T11:29:36.285Z,76.38
2022-12-01T11:32:30.533Z,76.60
2022-12-01T11:35:19.725Z,76.09
2022-12-01T11:38:28.757Z,76.25
2022-12-01T11:41:28.721Z,76.43
2022-12-01T11:47:27.790Z,76.53
2022-12-01T11:50:25.731Z,76.34
2022-12-01T11:53:27.107Z,75.85
2022-12-01T11:56:24.432Z,76.13
2022-12-01T11:59:24.698Z,75.38
2022-12-01T12:02:23.217Z,74.76
2022-12-01T12:05:34.718Z,75.14
2022-12-01T12:08:50.628Z,75.76
2022-12-01T12:11:44.594Z,75.26
2022-12-01T12:14:56.949Z,75.54
2022-12-01T12:17:43.427Z,75.24
2022-12-01T12:20:49.122Z,75.15
2022-12-01T12:23:41.141Z,74.53
2022-12-01T12:26:39.358Z,74.21
2022-12-01T12:29:52.177Z,74.38
2022-12-01T12:32:44.679Z,74.70
2022-12-01T12:35:45.828Z,74.42
2022-12-01T12:38:50.968Z,74.91
2022-12-01T12:41:48.742Z,75.09
2022-12-01T12:44:48.278Z,74.88
2022-12-01T12:47:42.334Z,74.21
2022-12-01T12:50:50.948Z,73.97
2022-12-01T12:53:45.506Z,74.37
2022-12-01T12:56:32.135Z,74.49
2022-12-01T12:59:25.343Z,74.33
2022-12-01T13:02:31.202Z,74.57
2022-12-01T13:05:24.018Z,74.76
2022-12-01T13:08:17.335Z,74.52
2022-12-01T13:11:24.875Z,74.97
2022-12-01T13:14:25.206Z,75.06
2022-12-01T13:17:14.622Z,75.41
2022-12-01T13:20:01.661Z,75.01
2022-12-01T13:22:48.212Z,75.00
2022-12-01T13:25:38.493Z,74.83
2022-12-01T13:28:41.005Z,74.29
2022-12-01T13:31:27.398Z,74.36
2022-12-01T13:34:29.943Z,74.29
2022-12-01T13:37:16.387Z,74.48
2022-12-01T13:40:16.534Z,75.11
2022-12-01T13:43:10.538Z,74.91
2022-12-01T13:45:57.739Z,75.23
2022-12-01T13:48:47.096Z,74.75
2022-12-01T13:52:21.579Z,74.87
2022-12-01T13:55:08.375Z,75.10
2022-12-01T13:57:58.267Z,74.95
2022-12-01T14:00:45.477Z,75.01
2022-12-01T14:03:33.686Z,75.08
2022-12-01T14:06:28.089Z,75.22
2022-12-01T14:09:24.155Z,75.63
2022-12-01T14:12:10.962Z,75.67
2022-12-01T14:15:00.270Z,75.57
2022-12-01T14:17:46.989Z,75.92
2022-12-01T14:20:43.665Z,75.39
2022-12-01T14:23:37.194Z,75.47
2022-12-01T14:26:24.033Z,75.23
2022-12-01T14:29:43.273Z,75.31
2022-12-01T14:32:29.748Z,74.97
2022-12-01T14:35:16.290Z,74.73
2022-12-01T14:38:03.121Z,75.28
2022-12-01T14:40:49.406Z,75.63
2022-12-01T14:43:54.850Z,75.43
2022-12-01T14:46:54.567Z,75.28
2022-12-01T14:49:44.168Z,75.30
2022-12-01T14:52:35.970Z,75.07
2022-12-01T14:55:33.230Z,75.05
2022-12-01T14:58:30.459Z,75.50
2022-12-01T15:01:17.263Z,75.63
2022-12-01T15:04:05.455Z,75.40
2022-12-01T15:06:56.350Z,75.30
2022-12-01T15:09:59.203Z,75.76
2022-12-01T15:12:46.454Z,75.98
2022-12-01T15:15:33.037Z,76.36
2022-12-01T15:18:31.394Z,76.04
2022-12-01T15:21:28.952Z,75.87
2022-12-01T15:24:24.238Z,76.07
2022-12-01T15:27:28.243Z,75.53
2022-12-01T15:30:15.367Z,75.25
2022-12-01T15:33:01.796Z,75.49
2022-12-01T15:35:49.449Z,75.50
2022-12-01T15:38:36.821Z,75.36
2022-12-01T15:41:30.829Z,75.21
2022-12-01T15:44:27.957Z,75.41
2022-12-01T15:47:46.202Z,75.48
2022-12-01T15:50:42.903Z,75.75
2022-12-01T15:53:34.523Z,76.06
2022-12-01T15:56:32.242Z,75.98
2022-12-01T15:59:35.425Z,75.57
2022-12-01T16:02:30.469Z,75.51
2022-12-01T16:05:18.921Z,75.25
2022-12-01T16:08:19.322Z,75.22
2022-12-01T16:11:12.834Z,75.30
2022-12-01T16:14:24.981Z,75.23
2022-12-01T16:17:11.441Z,75.52
2022-12-01T16:20:26.557Z,75.62
2022-12-01T16:23:19.054Z,75.59
2022-12-01T16:26:07.880Z,75.87
2022-12-01T16:28:55.383Z,76.15
2022-12-01T16:31:58.672Z,76.41
2022-12-01T16:34:50.202Z,76.07
2022-12-01T16:37:36.710Z,75.80
2022-12-01T16:40:23.514Z,75.81
2022-12-01T16:43:29.002Z,75.71
2022-12-01T16:46:15.793Z,75.44
2022-12-01T16:49:02.585Z,75.72
2022-12-01T16:51:55.946Z,75.60
2022-12-01T16:54:43.421Z,75.47
2022-12-01T16:57:30.170Z,75.44
2022-12-01T17:00:17.717Z,75.55
2022-12-01T17:03:05.132Z,75.35
2022-12-01T17:05:52.422Z,75.54
2022-12-01T17:08:39.270Z,75.87
2022-12-01T17:11:26.079Z,76.28
2022-12-01T17:14:12.887Z,76.12
2022-12-01T17:16:59.701Z,75.81
2022-12-01T17:19:46.223Z,75.70
2022-12-01T17:22:33.335Z,75.57
2022-12-01T17:25:20.241Z,75.44
2022-12-01T17:28:06.807Z,75.20
2022-12-01T17:30:53.703Z,75.22
2022-12-01T17:33:40.690Z,75.32
2022-12-01T17:36:27.044Z,75.30
2022-12-01T17:39:13.553Z,75.49
2022-12-01T17:42:00.097Z,75.50
2022-12-01T17:44:46.933Z,75.42
2022-12-01T17:47:33.651Z,75.04
2022-12-01T17:50:20.114Z,74.96
2022-12-01T17:53:07.127Z,75.35
2022-12-01T17:55:53.914Z,74.86
2022-12-01T17:58:41.150Z,74.96
2022-12-01T18:01:30.379Z,75.31
2022-12-01T18:04:17.433Z,75.03
2022-12-01T18:07:03.913Z,75.15
2022-12-01T18:09:50.699Z,75.39
2022-12-01T18:12:37.557Z,75.66
2022-12-01T18:15:27.326Z,75.43
2022-12-01T18:18:17.223Z,75.77
2022-12-01T18:21:07.821Z,75.13
2022-12-01T18:23:57.123Z,74.89
2022-12-01T18:26:57.725Z,74.75
2022-12-01T18:29:44.210Z,74.82
2022-12-01T18:32:31.139Z,74.45
2022-12-01T18:35:17.749Z,74.37
2022-12-01T18:38:04.454Z,74.23
2022-12-01T18:40:50.856Z,74.16
2022-12-01T18:43:37.559Z,74.46
2022-12-01T18:46:24.115Z,73.96
2022-12-01T18:49:11.082Z,73.78
2022-12-01T18:51:59.945Z,73.72
2022-12-01T18:54:46.762Z,74.19
2022-12-01T18:57:33.361Z,73.60
2022-12-01T19:00:21.093Z,73.64
2022-12-01T19:03:07.896Z,73.73
2022-12-01T19:05:54.482Z,73.75
2022-12-01T19:08:41.244Z,74.45
2022-12-01T19:11:28.831Z,73.79
2022-12-01T19:14:17.457Z,73.59
2022-12-01T19:17:04.417Z,73.33
2022-12-01T19:19:51.226Z,73.17
2022-12-01T19:22:38.342Z,73.37
2022-12-01T19:25:25.053Z,73.08
2022-12-01T19:28:11.883Z,73.04
2022-12-01T19:30:58.863Z,73.25
2022-12-01T19:33:46.321Z,73.27
2022-12-01T19:36:32.730Z,73.66
2022-12-01T19:39:20.134Z,74.04
2022-12-01T19:42:07.014Z,74.23
2022-12-01T19:44:53.423Z,74.15
2022-12-01T19:47:39.893Z,73.91
2022-12-01T19:50:26.356Z,74.02
2022-12-01T19:53:13.130Z,73.89
2022-12-01T19:56:04.197Z,73.70
2022-12-01T19:58:50.888Z,73.65
2022-12-01T20:01:37.767Z,73.87
2022-12-01T20:04:24.904Z,73.63
2022-12-01T20:07:11.269Z,73.73
2022-12-01T20:09:57.912Z,74.01
2022-12-01T20:12:44.779Z,74.21
2022-12-01T20:15:33.534Z,74.44
2022-12-01T20:18:19.884Z,74.24
2022-12-01T20:21:08.885Z,73.90
2022-12-01T20:24:00.376Z,73.70
2022-12-01T20:26:52.095Z,73.78
2022-12-01T20:29:39.274Z,73.61
2022-12-01T20:32:26.565Z,73.64
2022-12-01T20:35:13.853Z,73.94
2022-12-01T20:38:00.358Z,73.84
2022-12-01T20:40:50.112Z,73.73
2022-12-01T20:43:37.076Z,73.70
2022-12-01T20:46:23.805Z,73.62
2022-12-01T20:49:10.770Z,73.34
2022-12-01T20:51:57.589Z,73.38
2022-12-01T20:54:44.909Z,73.04
2022-12-01T20:57:31.616Z,73.55
2022-12-01T21:00:18.945Z,73.48
2022-12-01T21:03:05.458Z,73.43
2022-12-01T21:05:51.945Z,73.53
2022-12-01T21:08:39.633Z,73.99
2022-12-01T21:12:05.706Z,73.95
2022-12-01T21:15:14.446Z,73.84
2022-12-01T21:18:04.823Z,73.84
2022-12-01T21:20:55.232Z,73.68
2022-12-01T21:23:41.931Z,73.63
2022-12-01T21:26:28.843Z,73.84
2022-12-01T21:29:25.292Z,73.70
2022-12-01T21:32:14.833Z,74.03
2022-12-01T21:35:08.644Z,74.14
2022-12-01T21:38:00.600Z,73.82
2022-12-01T21:40:47.579Z,74.13
2022-12-01T21:43:38.286Z,74.08
2022-12-01T21:46:25.556Z,74.21
2022-12-01T21:49:22.017Z,74.80
2022-12-01T21:52:38.109Z,75.03
2022-12-01T21:55:24.561Z,74.93
2022-12-01T21:58:24.765Z,74.44
2022-12-01T22:01:20.904Z,74.24
2022-12-01T22:04:16.915Z,74.26
2022-12-01T22:07:05.098Z,74.29
2022-12-01T22:09:51.570Z,74.41
2022-12-01T22:12:38.167Z,74.24
2022-12-01T22:15:45.175Z,74.53
2022-12-01T22:18:38.310Z,74.72
2022-12-01T22:21:27.169Z,75.21
2022-12-01T22:24:23.914Z,75.03
2022-12-01T22:27:26.336Z,74.92
2022-12-01T22:30:20.693Z,74.54
2022-12-01T22:33:14.570Z,74.58
2022-12-01T22:36:01.159Z,74.40
2022-12-01T22:38:47.899Z,74.68
2022-12-01T22:41:34.431Z,74.63
2022-12-01T22:44:21.140Z,74.87
2022-12-01T22:47:08.610Z,74.73
2022-12-01T22:49:55.623Z,74.86
2022-12-01T22:52:42.121Z,74.93
2022-12-01T22:55:28.938Z,75.15
2022-12-01T22:58:29.230Z,74.97
2022-12-01T23:01:37.252Z,74.74
2022-12-01T23:04:34.527Z,74.67
2022-12-01T23:07:28.880Z,74.65
2022-12-01T23:10:17.569Z,74.67
2022-12-01T23:13:15.471Z,74.84
2022-12-01T23:16:02.397Z,74.99
2022-12-01T23:18:49.022Z,75.09
2022-12-01T23:21:36.126Z,74.94
2022-12-01T23:24:22.916Z,75.46
2022-12-01T23:27:09.597Z,75.56
2022-12-01T23:29:56.509Z,75.37
2022-12-01T23:32:56.331Z,75.57
2022-12-01T23:36:15.084Z,75.45
2022-12-01T23:39:02.918Z,75.12
2022-12-01T23:41:50.345Z,75.25
2022-12-01T23:44:42.172Z,74.96
2022-12-01T23:47:28.979Z,75.03
2022-12-01T23:50:21.215Z,75.43
2022-12-01T23:53:40.006Z,75.37
2022-12-01T23:56:27.886Z,75.61
2022-12-01T23:59:14.575Z,75.77
